Time;durP1;ratioP1;P1;durP2;ratioP2;P2;SDS_P1;SDS_P2;PMS_P1;PMS_P2;Temp;Humidity;BMP_temperature;BMP_pressure;BME280_temperature;BME280_humidity;BME280_pressure;Samples;Min_cycle;Max_cycle;Signal;HPM_P1;HPM_P2
2021/10/27 00:00:35;;;;;;;21.92;12.77;;;;;;;;;;2081802;28;20184;-56
2021/10/27 00:01:35;;;;;;;17.52;11.32;;;;;;;;;;2082327;28;20191;-59
2021/10/27 00:02:36;;;;;;;17.92;12.35;;;;;;;;;;2081318;28;20200;-59
2021/10/27 00:03:36;;;;;;;15.48;11.85;;;;;;;;;;2080512;28;20208;-56
2021/10/27 00:04:37;;;;;;;18.35;13.57;;;;;;;;;;2081179;28;20164;-56
2021/10/27 00:05:37;;;;;;;18.20;11.88;;;;;;;;;;2080807;28;20184;-58
2021/10/27 00:06:38;;;;;;;17.45;13.23;;;;;;;;;;2081365;28;20168;-56
2021/10/27 00:07:38;;;;;;;21.63;13.68;;;;;;;;;;2081713;28;20207;-59
2021/10/27 00:08:39;;;;;;;17.70;13.57;;;;;;;;;;2081829;28;20180;-58
2021/10/27 00:09:39;;;;;;;20.33;13.30;;;;;;;;;;2086089;28;20216;-59
2021/10/27 00:10:39;;;;;;;16.90;13.40;;;;;;;;;;2086323;28;20183;-57
2021/10/27 00:11:40;;;;;;;18.48;13.90;;;;;;;;;;2087039;28;20191;-56
2021/10/27 00:12:40;;;;;;;20.67;13.65;;;;;;;;;;2088259;28;20199;-59
2021/10/27 00:13:41;;;;;;;20.92;14.10;;;;;;;;;;2078107;28;20181;-55
2021/10/27 00:14:42;;;;;;;21.15;13.73;;;;;;;;;;2080746;28;20608;-55
2021/10/27 00:15:42;;;;;;;16.98;13.27;;;;;;;;;;2075197;28;20200;-54
2021/10/27 00:16:43;;;;;;;17.63;13.65;;;;;;;;;;2080301;28;20195;-55
2021/10/27 00:17:43;;;;;;;18.08;13.75;;;;;;;;;;2081684;28;20231;-60
2021/10/27 00:18:44;;;;;;;15.90;12.77;;;;;;;;;;2081632;28;20188;-56
2021/10/27 00:19:44;;;;;;;13.65;11.25;;;;;;;;;;2080452;28;20232;-55
2021/10/27 00:20:44;;;;;;;16.17;13.63;;;;;;;;;;2081095;28;20212;-58
2021/10/27 00:21:44;;;;;;;20.67;13.35;;;;;;;;;;2081672;28;20266;-54
2021/10/27 00:22:45;;;;;;;15.73;14.07;;;;;;;;;;2078623;28;20631;-55
2021/10/27 00:23:45;;;;;;;17.20;12.68;;;;;;;;;;2081292;28;20192;-60
2021/10/27 00:24:45;;;;;;;18.13;14.32;;;;;;;;;;2077416;28;20542;-58
2021/10/27 00:25:45;;;;;;;16.02;13.05;;;;;;;;;;2080854;28;20161;-56
2021/10/27 00:26:46;;;;;;;18.92;14.35;;;;;;;;;;2077307;28;20189;-58
2021/10/27 00:27:46;;;;;;;21.30;13.88;;;;;;;;;;2081250;28;20174;-56
2021/10/27 00:28:47;;;;;;;18.42;12.88;;;;;;;;;;2076754;28;20236;-57
2021/10/27 00:29:47;;;;;;;15.45;12.43;;;;;;;;;;2083512;28;20766;-60
2021/10/27 00:30:47;;;;;;;18.25;13.48;;;;;;;;;;2080802;28;20172;-58
2021/10/27 00:31:48;;;;;;;17.88;14.05;;;;;;;;;;2082463;28;20182;-55
2021/10/27 00:32:49;;;;;;;18.55;13.68;;;;;;;;;;2073536;28;20259;-57
2021/10/27 00:33:49;;;;;;;18.73;13.27;;;;;;;;;;2081268;28;20272;-56
2021/10/27 00:34:50;;;;;;;16.35;13.75;;;;;;;;;;2080933;28;20176;-60
2021/10/27 00:35:50;;;;;;;17.25;14.05;;;;;;;;;;2081710;28;20168;-55
2021/10/27 00:36:50;;;;;;;18.27;13.32;;;;;;;;;;2075357;28;20279;-58
2021/10/27 00:37:51;;;;;;;18.58;13.00;;;;;;;;;;2081628;28;20195;-57
2021/10/27 00:38:51;;;;;;;13.77;12.38;;;;;;;;;;2081357;28;20176;-57
2021/10/27 00:39:51;;;;;;;19.85;13.70;;;;;;;;;;2085430;28;20403;-55
2021/10/27 00:40:52;;;;;;;17.00;14.35;;;;;;;;;;2080852;28;20194;-58
2021/10/27 00:41:52;;;;;;;16.58;13.23;;;;;;;;;;2081368;28;20183;-59
2021/10/27 00:42:52;;;;;;;16.85;12.75;;;;;;;;;;2074086;28;20189;-57
2021/10/27 00:43:53;;;;;;;22.00;14.23;;;;;;;;;;2081826;28;20200;-58
2021/10/27 00:44:53;;;;;;;21.65;14.75;;;;;;;;;;2072938;28;20180;-56
2021/10/27 00:45:53;;;;;;;16.77;13.82;;;;;;;;;;2071961;28;20654;-53
2021/10/27 00:46:58;;;;;;;19.77;13.00;;;;;;;;;;2081031;28;20172;-55
2021/10/27 00:47:58;;;;;;;17.00;13.63;;;;;;;;;;2083217;28;20258;-57
2021/10/27 00:48:59;;;;;;;17.17;13.52;;;;;;;;;;2081341;28;20629;-57
2021/10/27 00:49:59;;;;;;;18.40;14.07;;;;;;;;;;2083199;28;20527;-55
2021/10/27 00:50:59;;;;;;;17.85;13.65;;;;;;;;;;2080845;28;20168;-54
2021/10/27 00:52:02;;;;;;;19.15;14.27;;;;;;;;;;2075030;28;20256;-57
2021/10/27 00:53:03;;;;;;;16.67;14.20;;;;;;;;;;2074402;28;20247;-53
2021/10/27 00:54:03;;;;;;;17.55;14.07;;;;;;;;;;2077209;28;20249;-56
2021/10/27 00:55:04;;;;;;;17.15;15.00;;;;;;;;;;2072614;28;20215;-56
2021/10/27 00:56:04;;;;;;;20.15;14.48;;;;;;;;;;2080626;28;20212;-56
2021/10/27 00:57:05;;;;;;;20.02;13.93;;;;;;;;;;2080698;28;20168;-53
2021/10/27 00:58:06;;;;;;;20.73;14.82;;;;;;;;;;2079140;28;20207;-57
2021/10/27 00:59:06;;;;;;;20.35;14.35;;;;;;;;;;2082061;28;20172;-54
2021/10/27 01:00:07;;;;;;;22.98;14.68;;;;;;;;;;2084525;28;20215;-55
2021/10/27 01:01:07;;;;;;;18.25;14.07;;;;;;;;;;2067268;28;20177;-56
2021/10/27 01:02:08;;;;;;;16.50;13.65;;;;;;;;;;2077198;28;20231;-58
2021/10/27 01:03:08;;;;;;;19.88;14.25;;;;;;;;;;2081830;28;20203;-56
2021/10/27 01:04:09;;;;;;;17.20;13.85;;;;;;;;;;2081619;28;20208;-58
2021/10/27 01:05:10;;;;;;;23.90;14.30;;;;;;;;;;2077272;28;20172;-60
2021/10/27 01:06:10;;;;;;;19.48;14.77;;;;;;;;;;2081023;28;20160;-58
2021/10/27 01:07:11;;;;;;;21.58;14.20;;;;;;;;;;2080562;28;20165;-55
2021/10/27 01:08:11;;;;;;;19.40;14.10;;;;;;;;;;2085415;28;20188;-57
2021/10/27 01:09:12;;;;;;;19.42;14.50;;;;;;;;;;2080979;28;20168;-58
2021/10/27 01:10:12;;;;;;;18.63;14.00;;;;;;;;;;2072464;28;20184;-57
2021/10/27 01:11:12;;;;;;;16.77;13.40;;;;;;;;;;2073280;28;20525;-57
2021/10/27 01:12:13;;;;;;;14.18;12.52;;;;;;;;;;2081770;28;20171;-59
2021/10/27 01:13:13;;;;;;;19.48;13.68;;;;;;;;;;2077449;28;20168;-57
2021/10/27 01:14:14;;;;;;;18.48;13.60;;;;;;;;;;2081025;28;20203;-56
2021/10/27 01:15:14;;;;;;;19.58;14.18;;;;;;;;;;2081899;28;20330;-56
2021/10/27 01:16:15;;;;;;;17.35;12.82;;;;;;;;;;2081507;28;20656;-56
2021/10/27 01:17:16;;;;;;;15.20;13.07;;;;;;;;;;2081180;28;20164;-58
2021/10/27 01:18:16;;;;;;;19.33;13.68;;;;;;;;;;2077490;28;20548;-59
2021/10/27 01:19:17;;;;;;;20.77;14.15;;;;;;;;;;2079927;28;20184;-57
2021/10/27 01:20:17;;;;;;;15.23;13.45;;;;;;;;;;2084769;28;20589;-56
2021/10/27 01:21:20;;;;;;;15.98;12.95;;;;;;;;;;2081421;28;20173;-55
2021/10/27 01:22:23;;;;;;;19.25;13.65;;;;;;;;;;2080168;28;20180;-57
2021/10/27 01:23:24;;;;;;;15.80;12.57;;;;;;;;;;2077970;28;20586;-55
2021/10/27 01:24:24;;;;;;;21.92;13.50;;;;;;;;;;2075363;28;20311;-58
2021/10/27 01:25:25;;;;;;;18.48;12.13;;;;;;;;;;2064275;28;20756;-56
2021/10/27 01:26:26;;;;;;;16.92;11.95;;;;;;;;;;2075425;28;20623;-56
2021/10/27 01:27:27;;;;;;;18.75;13.40;;;;;;;;;;2080707;28;20210;-56
2021/10/27 01:28:28;;;;;;;16.85;13.88;;;;;;;;;;2080901;28;20173;-59
2021/10/27 01:29:28;;;;;;;19.85;14.20;;;;;;;;;;2081811;28;20645;-57
2021/10/27 01:30:28;;;;;;;14.00;12.60;;;;;;;;;;2083283;28;20222;-58
2021/10/27 01:31:29;;;;;;;18.92;13.18;;;;;;;;;;2080742;28;20185;-58
2021/10/27 01:32:31;;;;;;;17.35;13.38;;;;;;;;;;2068174;28;20192;-56
2021/10/27 01:33:32;;;;;;;15.20;12.95;;;;;;;;;;2070397;28;20161;-54
2021/10/27 01:34:33;;;;;;;22.23;13.57;;;;;;;;;;2081223;28;20239;-54
2021/10/27 01:35:33;;;;;;;19.70;14.27;;;;;;;;;;2081097;28;20180;-53
2021/10/27 01:36:33;;;;;;;16.55;12.82;;;;;;;;;;2083340;28;20184;-57
2021/10/27 01:37:34;;;;;;;18.50;14.07;;;;;;;;;;2071534;28;20604;-57
2021/10/27 01:38:35;;;;;;;15.65;13.88;;;;;;;;;;2074265;28;20179;-54
2021/10/27 01:39:36;;;;;;;15.02;12.35;;;;;;;;;;2083183;28;20180;-58
2021/10/27 01:40:36;;;;;;;22.05;14.10;;;;;;;;;;2105440;22;20232;-62
2021/10/27 01:41:36;;;;;;;16.63;13.65;;;;;;;;;;2087088;28;20202;-64
2021/10/27 01:42:36;;;;;;;16.25;13.27;;;;;;;;;;2085960;28;20167;-64
2021/10/27 01:43:49;;;;;;;23.67;14.15;;;;;;;;;;2087333;28;20692;-62
2021/10/27 01:44:49;;;;;;;17.75;13.88;;;;;;;;;;2085506;28;20187;-61
2021/10/27 01:45:49;;;;;;;15.48;13.93;;;;;;;;;;2082078;28;20275;-65
2021/10/27 01:46:50;;;;;;;16.60;13.85;;;;;;;;;;2087808;28;20199;-64
2021/10/27 01:47:50;;;;;;;17.75;15.43;;;;;;;;;;2078892;28;20183;-64
2021/10/27 01:48:50;;;;;;;17.67;14.73;;;;;;;;;;2072452;28;20649;-64
2021/10/27 01:49:50;;;;;;;20.85;15.43;;;;;;;;;;2079615;28;20172;-64
2021/10/27 01:50:51;;;;;;;20.08;15.07;;;;;;;;;;2076550;28;20271;-64
2021/10/27 01:51:51;;;;;;;17.25;15.45;;;;;;;;;;2096791;28;20699;-64
2021/10/27 01:52:52;;;;;;;17.92;14.88;;;;;;;;;;2088575;28;20227;-64
2021/10/27 01:53:53;;;;;;;21.40;16.98;;;;;;;;;;2082164;28;20225;-64
2021/10/27 01:54:53;;;;;;;20.30;15.82;;;;;;;;;;2087590;28;20174;-64
2021/10/27 01:55:53;;;;;;;22.67;16.17;;;;;;;;;;2072842;28;20709;-64
2021/10/27 01:56:54;;;;;;;18.55;16.17;;;;;;;;;;2088851;28;20632;-64
2021/10/27 01:57:55;;;;;;;22.55;17.08;;;;;;;;;;2094410;28;20565;-64
2021/10/27 01:58:55;;;;;;;20.38;16.88;;;;;;;;;;2088985;28;20172;-64
2021/10/27 01:59:56;;;;;;;21.42;17.60;;;;;;;;;;2088722;28;20186;-64
2021/10/27 02:00:56;;;;;;;21.17;18.52;;;;;;;;;;2080023;28;20282;-64
2021/10/27 02:01:56;;;;;;;19.67;16.73;;;;;;;;;;2071833;28;20181;-64
2021/10/27 02:02:58;;;;;;;21.98;18.83;;;;;;;;;;2087820;28;20182;-64
2021/10/27 02:03:58;;;;;;;23.88;20.35;;;;;;;;;;2086030;28;20202;-64
2021/10/27 02:04:58;;;;;;;23.67;20.55;;;;;;;;;;2082914;28;20259;-64
2021/10/27 02:05:59;;;;;;;23.38;20.83;;;;;;;;;;2097203;28;20190;-64
2021/10/27 02:07:03;;;;;;;28.42;19.85;;;;;;;;;;2094496;28;20164;-64
2021/10/27 02:08:03;;;;;;;29.55;21.30;;;;;;;;;;2093294;28;20167;-64
2021/10/27 02:09:04;;;;;;;23.42;20.65;;;;;;;;;;2085858;28;20251;-64
2021/10/27 02:10:08;;;;;;;26.02;21.23;;;;;;;;;;2097549;28;20197;-64
2021/10/27 02:11:09;;;;;;;26.45;22.02;;;;;;;;;;2094020;28;20680;-64
2021/10/27 02:12:09;;;;;;;24.75;19.75;;;;;;;;;;2089759;28;20174;-64
2021/10/27 02:13:10;;;;;;;24.80;21.02;;;;;;;;;;2094154;28;20702;-64
2021/10/27 02:14:10;;;;;;;26.55;21.63;;;;;;;;;;2091741;28;20258;-64
2021/10/27 02:15:12;;;;;;;25.05;22.33;;;;;;;;;;2093140;28;20666;-64
2021/10/27 02:16:12;;;;;;;28.75;21.77;;;;;;;;;;2088498;28;20186;-64
2021/10/27 02:17:13;;;;;;;27.13;21.20;;;;;;;;;;2093045;28;20257;-64
2021/10/27 02:18:13;;;;;;;26.58;21.80;;;;;;;;;;2089115;28;20176;-64
2021/10/27 02:19:13;;;;;;;26.23;21.85;;;;;;;;;;2079442;28;20168;-63
2021/10/27 02:20:14;;;;;;;26.13;19.92;;;;;;;;;;2074367;28;20230;-62
2021/10/27 02:21:14;;;;;;;26.88;20.95;;;;;;;;;;2084312;28;20263;-63
2021/10/27 02:22:14;;;;;;;31.85;23.55;;;;;;;;;;2088549;28;20164;-62
2021/10/27 02:23:15;;;;;;;31.08;22.58;;;;;;;;;;2087857;28;20182;-65
2021/10/27 02:24:16;;;;;;;29.08;22.95;;;;;;;;;;2094400;28;20815;-62
2021/10/27 02:25:16;;;;;;;26.70;21.50;;;;;;;;;;2089017;28;20175;-64
2021/10/27 02:26:21;;;;;;;25.58;21.70;;;;;;;;;;2097091;28;20167;-63
2021/10/27 02:27:22;;;;;;;28.80;23.80;;;;;;;;;;2089940;28;20172;-64
2021/10/27 02:28:23;;;;;;;35.17;22.52;;;;;;;;;;2091189;28;20195;-64
2021/10/27 02:29:24;;;;;;;26.10;22.45;;;;;;;;;;2096811;28;20178;-64
2021/10/27 02:30:24;;;;;;;29.20;23.15;;;;;;;;;;2093115;28;20259;-64
2021/10/27 02:31:25;;;;;;;26.98;23.45;;;;;;;;;;2094958;28;20261;-64
2021/10/27 02:32:26;;;;;;;30.73;23.13;;;;;;;;;;2094584;28;20189;-64
2021/10/27 02:33:26;;;;;;;30.02;23.60;;;;;;;;;;2094375;28;20186;-64
2021/10/27 02:34:27;;;;;;;31.25;23.30;;;;;;;;;;2088261;28;20704;-64
2021/10/27 02:35:27;;;;;;;27.80;23.52;;;;;;;;;;2092240;28;20174;-64
2021/10/27 02:36:28;;;;;;;27.27;22.98;;;;;;;;;;2091329;28;20192;-64
2021/10/27 02:37:28;;;;;;;28.48;23.85;;;;;;;;;;2094273;28;20173;-65
2021/10/27 02:38:28;;;;;;;28.85;22.15;;;;;;;;;;2086391;28;20244;-63
2021/10/27 02:39:29;;;;;;;28.25;23.75;;;;;;;;;;2080597;28;20192;-64
2021/10/27 02:40:29;;;;;;;33.25;23.60;;;;;;;;;;2093111;28;20163;-64
2021/10/27 02:41:29;;;;;;;28.30;23.90;;;;;;;;;;2092119;28;20179;-66
2021/10/27 02:42:30;;;;;;;32.83;24.23;;;;;;;;;;2093066;28;20666;-64
2021/10/27 02:43:30;;;;;;;30.80;24.27;;;;;;;;;;2088927;28;20172;-64
2021/10/27 02:44:30;;;;;;;28.83;24.23;;;;;;;;;;2089158;28;20187;-64
2021/10/27 02:45:30;;;;;;;29.75;23.83;;;;;;;;;;2083047;28;20175;-64
2021/10/27 02:46:31;;;;;;;28.25;24.95;;;;;;;;;;2078056;28;20175;-64
2021/10/27 02:47:31;;;;;;;29.02;24.00;;;;;;;;;;2080809;28;20176;-64
2021/10/27 02:48:31;;;;;;;29.42;25.45;;;;;;;;;;2086782;28;20552;-64
2021/10/27 02:49:32;;;;;;;32.30;25.52;;;;;;;;;;2091263;28;20179;-64
2021/10/27 02:50:32;;;;;;;34.15;25.15;;;;;;;;;;2091720;28;20179;-64
2021/10/27 02:51:32;;;;;;;30.95;24.35;;;;;;;;;;2083381;28;20182;-65
2021/10/27 02:52:33;;;;;;;28.98;24.13;;;;;;;;;;2089315;28;20175;-65
2021/10/27 02:53:33;;;;;;;32.45;27.13;;;;;;;;;;2100176;28;20162;-65
2021/10/27 02:54:33;;;;;;;34.20;26.10;;;;;;;;;;2099791;28;20177;-65
2021/10/27 02:55:34;;;;;;;34.20;25.85;;;;;;;;;;2100639;28;20174;-64
2021/10/27 02:56:35;;;;;;;37.45;27.23;;;;;;;;;;2100729;28;20182;-65
2021/10/27 02:57:35;;;;;;;31.25;24.95;;;;;;;;;;2100537;28;20171;-64
2021/10/27 02:58:35;;;;;;;32.70;26.27;;;;;;;;;;2093341;28;20171;-64
2021/10/27 02:59:36;;;;;;;30.75;25.40;;;;;;;;;;2082941;28;20555;-64
2021/10/27 03:00:36;;;;;;;35.47;26.58;;;;;;;;;;2080069;28;20267;-65
2021/10/27 03:01:36;;;;;;;31.05;25.45;;;;;;;;;;2081715;28;20279;-62
2021/10/27 03:02:37;;;;;;;32.03;27.30;;;;;;;;;;2091109;28;20206;-64
2021/10/27 03:03:37;;;;;;;31.02;24.33;;;;;;;;;;2091594;28;20215;-62
2021/10/27 03:04:38;;;;;;;35.63;26.63;;;;;;;;;;2089224;28;20638;-63
2021/10/27 03:05:38;;;;;;;30.85;25.35;;;;;;;;;;2093331;28;20167;-63
2021/10/27 03:06:39;;;;;;;31.35;26.08;;;;;;;;;;2098428;28;20208;-64
2021/10/27 03:07:40;;;;;;;32.15;24.98;;;;;;;;;;2091520;28;20197;-63
2021/10/27 03:08:40;;;;;;;32.83;25.77;;;;;;;;;;2083462;28;20345;-64
2021/10/27 03:09:40;;;;;;;30.45;24.00;;;;;;;;;;2096225;28;20205;-63
2021/10/27 03:10:41;;;;;;;29.52;24.73;;;;;;;;;;2090170;28;20191;-63
2021/10/27 03:11:41;;;;;;;32.72;26.73;;;;;;;;;;2075563;28;20177;-63
2021/10/27 03:12:41;;;;;;;30.23;25.05;;;;;;;;;;2089819;28;20163;-63
2021/10/27 03:13:42;;;;;;;33.97;26.75;;;;;;;;;;2097323;28;20178;-63
2021/10/27 03:14:42;;;;;;;31.50;25.73;;;;;;;;;;2081799;28;20192;-64
2021/10/27 03:15:42;;;;;;;35.30;26.05;;;;;;;;;;2082093;28;20221;-63
2021/10/27 03:16:42;;;;;;;28.92;24.45;;;;;;;;;;2091915;28;20225;-63
2021/10/27 03:17:43;;;;;;;32.53;25.83;;;;;;;;;;2092211;28;20186;-63
2021/10/27 03:18:43;;;;;;;29.88;25.55;;;;;;;;;;2094376;28;20312;-63
2021/10/27 03:19:43;;;;;;;29.35;23.77;;;;;;;;;;2092693;28;20172;-63
2021/10/27 03:20:44;;;;;;;33.55;24.45;;;;;;;;;;2098511;28;20745;-63
2021/10/27 03:21:44;;;;;;;31.50;23.98;;;;;;;;;;2092281;28;20198;-64
2021/10/27 03:22:44;;;;;;;28.50;24.40;;;;;;;;;;2099622;28;20181;-63
2021/10/27 03:23:44;;;;;;;32.90;24.98;;;;;;;;;;2096248;28;20676;-63
2021/10/27 03:24:45;;;;;;;34.85;25.00;;;;;;;;;;2091677;28;20190;-62
2021/10/27 03:25:45;;;;;;;30.60;24.10;;;;;;;;;;2082568;28;20854;-63
2021/10/27 03:26:45;;;;;;;31.15;24.95;;;;;;;;;;2083006;28;20708;-63
2021/10/27 03:27:45;;;;;;;29.67;24.52;;;;;;;;;;2092023;28;20337;-63
2021/10/27 03:28:46;;;;;;;27.92;24.52;;;;;;;;;;2090619;28;20171;-63
2021/10/27 03:29:46;;;;;;;26.10;23.15;;;;;;;;;;2092370;28;20198;-63
2021/10/27 03:30:47;;;;;;;31.17;24.98;;;;;;;;;;2091641;28;20203;-63
2021/10/27 03:31:47;;;;;;;34.88;25.52;;;;;;;;;;2092025;28;20194;-63
2021/10/27 03:32:47;;;;;;;31.58;25.70;;;;;;;;;;2092440;28;20644;-64
2021/10/27 03:33:47;;;;;;;30.10;24.95;;;;;;;;;;2082235;28;20238;-63
2021/10/27 03:34:49;;;;;;;33.53;24.85;;;;;;;;;;2074232;28;20274;-63
2021/10/27 03:35:49;;;;;;;31.25;26.67;;;;;;;;;;2082840;28;20187;-63
2021/10/27 03:36:49;;;;;;;30.33;26.25;;;;;;;;;;2083254;28;20255;-64
2021/10/27 03:37:50;;;;;;;32.65;26.35;;;;;;;;;;2089295;28;20224;-63
2021/10/27 03:38:50;;;;;;;31.10;25.83;;;;;;;;;;2094632;28;20694;-63
2021/10/27 03:39:51;;;;;;;32.13;26.33;;;;;;;;;;2094952;28;20186;-63
2021/10/27 03:40:51;;;;;;;31.50;26.75;;;;;;;;;;2091061;28;20198;-64
2021/10/27 03:41:52;;;;;;;31.73;25.83;;;;;;;;;;2093227;28;20640;-63
2021/10/27 03:42:52;;;;;;;37.72;26.88;;;;;;;;;;2093284;28;20183;-63
2021/10/27 03:43:52;;;;;;;32.33;27.42;;;;;;;;;;2083249;28;20209;-63
2021/10/27 03:44:53;;;;;;;34.28;28.60;;;;;;;;;;2092152;28;20620;-62
2021/10/27 03:45:53;;;;;;;34.17;29.48;;;;;;;;;;2092294;28;20174;-63
2021/10/27 03:46:53;;;;;;;32.63;27.05;;;;;;;;;;2102101;28;20171;-62
2021/10/27 03:47:54;;;;;;;34.58;26.90;;;;;;;;;;2101052;28;20622;-63
2021/10/27 03:48:54;;;;;;;35.67;27.30;;;;;;;;;;2094647;28;20199;-63
2021/10/27 03:49:55;;;;;;;37.35;28.40;;;;;;;;;;2099865;28;20186;-63
2021/10/27 03:50:55;;;;;;;33.70;28.42;;;;;;;;;;2093383;28;20279;-62
2021/10/27 03:51:56;;;;;;;34.00;26.63;;;;;;;;;;2095127;28;20167;-63
2021/10/27 03:52:56;;;;;;;38.90;27.75;;;;;;;;;;2100471;28;20186;-63
2021/10/27 03:53:56;;;;;;;35.20;28.40;;;;;;;;;;2089126;28;20283;-63
2021/10/27 03:54:56;;;;;;;37.38;29.48;;;;;;;;;;2099552;28;20209;-63
2021/10/27 03:55:57;;;;;;;34.45;29.20;;;;;;;;;;2093139;28;20175;-60
2021/10/27 03:56:57;;;;;;;33.95;28.42;;;;;;;;;;2101226;28;20166;-63
2021/10/27 03:57:59;;;;;;;36.70;28.55;;;;;;;;;;2089422;28;20187;-63
2021/10/27 03:58:59;;;;;;;39.90;29.80;;;;;;;;;;2086493;28;20597;-61
2021/10/27 03:59:59;;;;;;;35.88;28.23;;;;;;;;;;2091963;28;20179;-62
2021/10/27 04:01:00;;;;;;;39.58;31.13;;;;;;;;;;2089923;28;20215;-63
2021/10/27 04:02:01;;;;;;;39.92;29.98;;;;;;;;;;2092160;28;20557;-63
2021/10/27 04:03:02;;;;;;;40.33;30.10;;;;;;;;;;2098873;28;20182;-59
2021/10/27 04:04:02;;;;;;;39.47;30.25;;;;;;;;;;2092439;28;20286;-58
2021/10/27 04:05:02;;;;;;;38.05;31.08;;;;;;;;;;2096495;28;20246;-62
2021/10/27 04:06:03;;;;;;;41.15;30.13;;;;;;;;;;2083494;28;20214;-64
2021/10/27 04:07:03;;;;;;;41.17;32.10;;;;;;;;;;2073926;28;20630;-63
2021/10/27 04:08:04;;;;;;;40.67;31.92;;;;;;;;;;2079965;28;20173;-64
2021/10/27 04:09:04;;;;;;;39.13;31.38;;;;;;;;;;2089357;28;20178;-63
2021/10/27 04:10:06;;;;;;;41.03;32.03;;;;;;;;;;2079566;28;20378;-63
2021/10/27 04:11:06;;;;;;;39.35;31.15;;;;;;;;;;2081385;28;20216;-64
2021/10/27 04:12:07;;;;;;;43.63;33.75;;;;;;;;;;2090420;28;20267;-64
2021/10/27 04:13:07;;;;;;;40.33;31.00;;;;;;;;;;2098732;28;20183;-65
2021/10/27 04:14:07;;;;;;;41.35;32.63;;;;;;;;;;2096232;28;20176;-64
2021/10/27 04:15:08;;;;;;;43.05;33.08;;;;;;;;;;2090551;28;20261;-64
2021/10/27 04:16:09;;;;;;;42.50;33.38;;;;;;;;;;2094140;28;20282;-64
2021/10/27 04:17:09;;;;;;;41.25;31.73;;;;;;;;;;2098835;28;20167;-64
2021/10/27 04:18:09;;;;;;;43.10;32.30;;;;;;;;;;2096809;28;20167;-64
2021/10/27 04:19:10;;;;;;;46.55;33.92;;;;;;;;;;2090493;28;20228;-65
2021/10/27 04:20:11;;;;;;;42.90;31.77;;;;;;;;;;2091165;28;20163;-61
2021/10/27 04:21:11;;;;;;;50.10;33.30;;;;;;;;;;2073380;28;20768;-64
2021/10/27 04:22:11;;;;;;;42.63;32.63;;;;;;;;;;2068955;28;20177;-64
2021/10/27 04:23:15;;;;;;;47.20;35.33;;;;;;;;;;2081914;28;20558;-64
2021/10/27 04:24:15;;;;;;;47.75;34.30;;;;;;;;;;2086019;28;20204;-62
2021/10/27 04:25:15;;;;;;;47.42;34.65;;;;;;;;;;2090480;28;20261;-64
2021/10/27 04:26:16;;;;;;;48.22;34.50;;;;;;;;;;2085712;28;20183;-64
2021/10/27 04:27:16;;;;;;;47.92;35.78;;;;;;;;;;2081447;28;20893;-63
2021/10/27 04:28:17;;;;;;;47.67;34.58;;;;;;;;;;2085807;28;20176;-64
2021/10/27 04:29:17;;;;;;;44.35;33.80;;;;;;;;;;2088791;28;20722;-63
2021/10/27 04:30:17;;;;;;;50.85;35.55;;;;;;;;;;2093259;28;20223;-63
2021/10/27 04:31:18;;;;;;;52.70;35.25;;;;;;;;;;2093804;28;20195;-64
2021/10/27 04:32:18;;;;;;;46.85;34.45;;;;;;;;;;2093462;28;20653;-62
2021/10/27 04:33:20;;;;;;;48.55;34.15;;;;;;;;;;2089571;28;20672;-63
2021/10/27 04:34:20;;;;;;;46.10;33.78;;;;;;;;;;2089630;28;20201;-63
2021/10/27 04:35:21;;;;;;;47.55;33.88;;;;;;;;;;2090073;28;20636;-63
2021/10/27 04:36:22;;;;;;;43.53;33.90;;;;;;;;;;2093094;28;20172;-64
2021/10/27 04:37:24;;;;;;;48.92;34.47;;;;;;;;;;2088626;28;20579;-64
2021/10/27 04:38:24;;;;;;;46.15;34.10;;;;;;;;;;2086797;28;20179;-66
2021/10/27 04:39:25;;;;;;;46.45;34.60;;;;;;;;;;2089551;28;20202;-64
2021/10/27 04:40:26;;;;;;;45.70;32.40;;;;;;;;;;2089296;28;20179;-64
2021/10/27 04:41:26;;;;;;;47.33;35.83;;;;;;;;;;2090028;28;20175;-64
2021/10/27 04:42:26;;;;;;;44.22;33.33;;;;;;;;;;2092265;28;20255;-64
2021/10/27 04:43:27;;;;;;;42.55;31.27;;;;;;;;;;2092736;28;20179;-65
2021/10/27 04:44:27;;;;;;;48.92;35.65;;;;;;;;;;2095842;28;20195;-64
2021/10/27 04:45:28;;;;;;;46.30;33.03;;;;;;;;;;2092991;28;20171;-64
2021/10/27 04:46:29;;;;;;;45.03;33.25;;;;;;;;;;2094529;28;20178;-65
2021/10/27 04:47:29;;;;;;;44.00;33.13;;;;;;;;;;2090303;28;20172;-64
2021/10/27 04:48:29;;;;;;;46.70;33.08;;;;;;;;;;2079099;28;20168;-64
2021/10/27 04:49:30;;;;;;;43.58;33.40;;;;;;;;;;2081604;28;20172;-64
2021/10/27 04:50:31;;;;;;;45.90;33.50;;;;;;;;;;2089358;28;20640;-65
2021/10/27 04:51:31;;;;;;;41.92;32.00;;;;;;;;;;2096293;28;20179;-65
2021/10/27 04:52:32;;;;;;;45.40;34.13;;;;;;;;;;2091211;28;20167;-63
2021/10/27 04:53:32;;;;;;;48.35;34.45;;;;;;;;;;2091913;28;20172;-63
2021/10/27 04:54:32;;;;;;;47.88;33.47;;;;;;;;;;2097501;28;20720;-63
2021/10/27 04:55:32;;;;;;;46.05;33.47;;;;;;;;;;2093289;28;20686;-63
2021/10/27 04:56:33;;;;;;;44.28;32.83;;;;;;;;;;2097325;28;20631;-63
2021/10/27 04:57:33;;;;;;;42.55;33.05;;;;;;;;;;2095988;28;20651;-62
2021/10/27 04:58:33;;;;;;;42.88;31.25;;;;;;;;;;2088852;28;20171;-62
2021/10/27 04:59:39;;;;;;;47.17;34.22;;;;;;;;;;2090869;28;20180;-63
2021/10/27 05:00:39;;;;;;;45.58;33.28;;;;;;;;;;2089811;28;20278;-62
2021/10/27 05:01:41;;;;;;;45.15;33.90;;;;;;;;;;2096038;28;20627;-64
2021/10/27 05:02:42;;;;;;;47.20;35.20;;;;;;;;;;2087638;28;20302;-63
2021/10/27 05:03:42;;;;;;;43.92;33.50;;;;;;;;;;2095195;28;20334;-63
2021/10/27 05:04:43;;;;;;;45.47;33.22;;;;;;;;;;2092129;28;20171;-63
2021/10/27 05:05:50;;;;;;;43.75;33.33;;;;;;;;;;2087756;28;20167;-62
2021/10/27 05:06:50;;;;;;;44.47;33.65;;;;;;;;;;2083806;28;20244;-63
2021/10/27 05:07:52;;;;;;;44.50;33.15;;;;;;;;;;2088700;28;20183;-62
2021/10/27 05:08:53;;;;;;;44.65;33.03;;;;;;;;;;2090297;28;20544;-61
2021/10/27 05:09:53;;;;;;;42.53;31.20;;;;;;;;;;2089319;28;20179;-63
2021/10/27 05:10:53;;;;;;;43.08;33.10;;;;;;;;;;2089378;28;20738;-63
2021/10/27 05:11:54;;;;;;;39.28;31.92;;;;;;;;;;2092671;28;20175;-64
2021/10/27 05:12:54;;;;;;;45.38;32.10;;;;;;;;;;2090554;28;20652;-64
2021/10/27 05:13:55;;;;;;;40.15;30.63;;;;;;;;;;2095817;28;20243;-63
2021/10/27 05:14:56;;;;;;;42.55;31.63;;;;;;;;;;2096468;28;20257;-63
2021/10/27 05:15:56;;;;;;;45.70;33.45;;;;;;;;;;2091152;28;20636;-64
2021/10/27 05:16:56;;;;;;;43.58;32.83;;;;;;;;;;2083123;28;20175;-60
2021/10/27 05:17:57;;;;;;;43.17;32.22;;;;;;;;;;2075454;28;20219;-63
2021/10/27 05:18:57;;;;;;;44.65;33.33;;;;;;;;;;2097656;28;20178;-64
2021/10/27 05:19:57;;;;;;;43.13;32.90;;;;;;;;;;2096996;28;20217;-64
2021/10/27 05:20:57;;;;;;;44.75;32.35;;;;;;;;;;2095739;28;20272;-63
2021/10/27 05:21:57;;;;;;;47.40;33.83;;;;;;;;;;2094920;28;20198;-63
2021/10/27 05:22:58;;;;;;;45.72;30.83;;;;;;;;;;2089039;28;20172;-64
2021/10/27 05:23:58;;;;;;;41.60;31.42;;;;;;;;;;2088245;28;20248;-63
2021/10/27 05:24:58;;;;;;;41.22;30.50;;;;;;;;;;2089750;28;20719;-63
2021/10/27 05:25:59;;;;;;;43.25;30.50;;;;;;;;;;2087073;28;20167;-64
2021/10/27 05:26:59;;;;;;;39.65;30.05;;;;;;;;;;2091156;28;20230;-64
2021/10/27 05:27:59;;;;;;;42.75;31.05;;;;;;;;;;2089496;28;20178;-62
2021/10/27 05:28:59;;;;;;;37.65;30.42;;;;;;;;;;2091158;28;20183;-64
2021/10/27 05:30:00;;;;;;;38.47;29.88;;;;;;;;;;2086406;28;20168;-63
2021/10/27 05:31:00;;;;;;;39.08;28.55;;;;;;;;;;2089753;28;20211;-63
2021/10/27 05:32:01;;;;;;;37.03;29.80;;;;;;;;;;2084507;28;20176;-64
2021/10/27 05:33:01;;;;;;;35.17;28.98;;;;;;;;;;2088454;28;20176;-64
2021/10/27 05:34:02;;;;;;;35.97;28.27;;;;;;;;;;2080072;28;20587;-65
2021/10/27 05:35:03;;;;;;;37.30;27.90;;;;;;;;;;2078391;28;20160;-64
2021/10/27 05:36:03;;;;;;;37.78;29.70;;;;;;;;;;2085058;28;20264;-63
2021/10/27 05:37:04;;;;;;;39.55;30.48;;;;;;;;;;2086008;28;20191;-63
2021/10/27 05:38:04;;;;;;;38.72;30.52;;;;;;;;;;2092389;28;20191;-65
2021/10/27 05:39:04;;;;;;;45.15;30.38;;;;;;;;;;2080956;28;20180;-64
2021/10/27 05:40:05;;;;;;;36.80;28.98;;;;;;;;;;2074500;28;20181;-62
2021/10/27 05:41:06;;;;;;;33.42;25.55;;;;;;;;;;2080267;28;20203;-62
2021/10/27 05:42:10;;;;;;;41.05;30.17;;;;;;;;;;2085727;28;20284;-64
2021/10/27 05:43:13;;;;;;;35.60;28.83;;;;;;;;;;2081014;28;20168;-61
2021/10/27 05:44:14;;;;;;;41.50;29.38;;;;;;;;;;2078585;28;20203;-64
2021/10/27 05:45:15;;;;;;;35.67;29.30;;;;;;;;;;2080781;28;20171;-64
2021/10/27 05:46:18;;;;;;;39.33;29.15;;;;;;;;;;2078413;28;20172;-62
2021/10/27 05:47:18;;;;;;;35.45;28.05;;;;;;;;;;2086361;28;20251;-64
2021/10/27 05:48:19;;;;;;;41.35;26.60;;;;;;;;;;2089108;28;20229;-64
2021/10/27 05:49:26;;;;;;;38.45;29.42;;;;;;;;;;2086514;28;20168;-59
2021/10/27 05:50:37;;;;;;;39.00;28.50;;;;;;;;;;2091073;28;20194;-60
2021/10/27 05:51:42;;;;;;;35.33;27.88;;;;;;;;;;2094530;28;20628;-58
2021/10/27 05:55:27;;;;;;;38.65;29.27;;;;;;;;;;2092788;28;20171;-60